Barrett, Minnesota
Current Conditions -  °F | °C
As of 1:16 AM on Friday 31 Oct 2014 (Local Time) from KY63 Reporting Station
Clear Clear  
Wind Chill: 17°   Ceiling: Unl
Heat Index: 26°   Visibility: 10mi
Dew Point: 20°   Wind: 9mph
Humidity: 78%   Direction: 350°N
Pressure: 30.51"   Gusts: NA
Location:  45.91°N, 95.89°W
Report Text: KY63 310616Z AUTO 35008KT 10SM CLR M03/M07 A3051 RMK AO2 T10331067
Loading
Personal Weather Stations






























Interactive Weather Map
Tropical Storm Tracking
New forecast layout! Learn more

10-Day Weather Forecast

Advertisements
Track Severe Weather on mobile